createdAt,value
2023-02-06T00:01:21.724Z,100270.98
2023-02-06T00:04:03.082Z,100267.85
2023-02-06T00:06:51.891Z,100268.09
2023-02-06T00:09:21.950Z,100265.53
2023-02-06T00:12:04.709Z,100271.77
2023-02-06T00:15:04.065Z,100274.00
2023-02-06T00:17:37.067Z,100278.10
2023-02-06T00:20:14.399Z,100281.02
2023-02-06T00:22:44.041Z,100283.16
2023-02-06T00:25:38.050Z,100286.08
2023-02-06T00:28:12.747Z,100288.62
2023-02-06T00:30:47.383Z,100289.21
2023-02-06T00:33:37.441Z,100290.09
2023-02-06T00:36:12.796Z,100291.20
2023-02-06T00:38:44.210Z,100299.02
2023-02-06T00:41:22.916Z,100298.22
2023-02-06T00:44:02.721Z,100295.64
2023-02-06T00:46:40.169Z,100291.93
2023-02-06T00:50:08.603Z,100294.71
2023-02-06T00:52:45.097Z,100299.81
2023-02-06T00:55:11.664Z,100303.95
2023-02-06T00:57:44.546Z,100306.48
2023-02-06T01:00:17.303Z,100305.49
2023-02-06T01:02:54.091Z,100301.39
2023-02-06T01:05:21.121Z,100299.14
2023-02-06T01:08:04.435Z,100297.20
2023-02-06T01:10:58.631Z,100301.29
2023-02-06T01:13:40.665Z,100302.21
2023-02-06T01:16:30.153Z,100305.31
2023-02-06T01:19:23.594Z,100307.67
2023-02-06T01:21:56.178Z,100308.23
2023-02-06T01:24:48.109Z,100310.21
2023-02-06T01:27:15.030Z,100313.41
2023-02-06T01:30:04.518Z,100310.95
2023-02-06T01:32:38.805Z,100307.11
2023-02-06T01:35:15.807Z,100311.73
2023-02-06T01:38:05.896Z,100314.27
2023-02-06T01:40:40.724Z,100310.07
2023-02-06T01:43:34.618Z,100314.27
2023-02-06T01:47:10.577Z,100314.46
2023-02-06T01:50:53.919Z,100314.64
2023-02-06T01:54:34.052Z,100325.14
2023-02-06T01:57:15.833Z,100327.08
2023-02-06T02:00:03.752Z,100328.42
2023-02-06T02:03:04.926Z,100329.01
2023-02-06T02:05:44.190Z,100323.48
2023-02-06T02:08:34.640Z,100323.74
2023-02-06T02:11:22.099Z,100323.79
2023-02-06T02:14:04.366Z,100329.42
2023-02-06T02:17:14.974Z,100326.59
2023-02-06T02:20:41.323Z,100334.69
2023-02-06T02:24:04.448Z,100336.23
2023-02-06T02:26:43.784Z,100338.01
2023-02-06T02:29:55.442Z,100338.52
2023-02-06T02:33:12.002Z,100333.17
2023-02-06T02:35:51.275Z,100331.91
2023-02-06T02:38:35.387Z,100331.70
2023-02-06T02:41:20.399Z,100330.74
2023-02-06T02:43:58.141Z,100331.05
2023-02-06T02:46:54.298Z,100334.75
2023-02-06T02:49:28.192Z,100339.02
2023-02-06T02:52:24.497Z,100342.64
2023-02-06T02:55:11.530Z,100342.65
2023-02-06T02:57:41.276Z,100337.88
2023-02-06T03:00:12.354Z,100340.80
2023-02-06T03:02:40.216Z,100342.95
2023-02-06T03:05:09.077Z,100347.11
2023-02-06T03:07:54.328Z,100344.45
2023-02-06T03:11:29.014Z,100342.33
2023-02-06T03:14:26.567Z,100336.89
2023-02-06T03:17:06.260Z,100340.30
2023-02-06T03:19:39.135Z,100341.98
2023-02-06T03:22:08.700Z,100346.40
2023-02-06T03:24:48.551Z,100351.06
2023-02-06T03:27:38.591Z,100353.57
2023-02-06T03:30:05.989Z,100356.41
2023-02-06T03:32:49.540Z,100357.34
2023-02-06T03:35:25.748Z,100356.27
2023-02-06T03:38:02.512Z,100357.40
2023-02-06T03:40:41.286Z,100351.83
2023-02-06T03:43:13.282Z,100351.89
2023-02-06T03:45:48.277Z,100352.63
2023-02-06T03:48:18.749Z,100349.89
2023-02-06T03:50:55.603Z,100351.43
2023-02-06T03:53:40.443Z,100356.52
2023-02-06T03:56:20.290Z,100350.10
2023-02-06T03:58:50.511Z,100350.30
2023-02-06T04:01:23.653Z,100347.87
2023-02-06T04:04:00.990Z,100351.57
2023-02-06T04:06:34.240Z,100352.30
2023-02-06T04:09:28.884Z,100349.23
2023-02-06T04:12:24.872Z,100346.83
2023-02-06T04:14:58.199Z,100349.83
2023-02-06T04:17:46.504Z,100348.29
2023-02-06T04:20:48.331Z,100347.42
2023-02-06T04:23:30.567Z,100350.98
2023-02-06T04:26:13.326Z,100353.56
2023-02-06T04:28:48.623Z,100353.89
2023-02-06T04:31:30.392Z,100360.21
2023-02-06T04:34:06.102Z,100361.94
2023-02-06T04:36:49.670Z,100365.99
2023-02-06T04:39:19.906Z,100359.73
2023-02-06T04:41:52.642Z,100359.70
2023-02-06T04:44:44.778Z,100360.17
2023-02-06T04:47:30.122Z,100358.83
2023-02-06T04:49:57.278Z,100361.99
2023-02-06T04:52:29.568Z,100362.27
2023-02-06T04:54:58.868Z,100367.13
2023-02-06T04:58:11.653Z,100372.92
2023-02-06T05:01:38.553Z,100381.19
2023-02-06T05:05:25.991Z,100385.24
2023-02-06T05:08:31.976Z,100379.53
2023-02-06T05:11:25.465Z,100374.93
2023-02-06T05:14:02.426Z,100381.60
2023-02-06T05:16:43.233Z,100386.14
2023-02-06T05:19:21.512Z,100391.27
2023-02-06T05:22:15.726Z,100390.06
2023-02-06T05:24:52.997Z,100391.64
2023-02-06T05:27:24.040Z,100385.99
2023-02-06T05:29:53.357Z,100388.78
2023-02-06T05:32:22.683Z,100390.52
2023-02-06T05:34:49.700Z,100395.33
2023-02-06T05:37:21.768Z,100398.44
2023-02-06T05:39:57.275Z,100403.06
2023-02-06T05:42:32.579Z,100398.62
2023-02-06T05:45:01.844Z,100400.82
2023-02-06T05:47:53.752Z,100413.05
2023-02-06T05:50:36.487Z,100412.92
2023-02-06T05:53:04.770Z,100412.27
2023-02-06T05:55:34.905Z,100418.45
2023-02-06T05:58:11.427Z,100417.86
2023-02-06T06:00:40.285Z,100419.51
2023-02-06T06:03:09.642Z,100426.27
2023-02-06T06:05:37.021Z,100429.82
2023-02-06T06:08:05.417Z,100436.95
2023-02-06T06:10:54.859Z,100434.32
2023-02-06T06:13:27.464Z,100440.13
2023-02-06T06:16:16.335Z,100445.08
2023-02-06T06:19:03.443Z,100449.20
2023-02-06T06:21:33.520Z,100446.60
2023-02-06T06:24:00.691Z,100445.37
2023-02-06T06:26:36.287Z,100446.10
2023-02-06T06:29:05.955Z,100446.73
2023-02-06T06:31:33.383Z,100442.61
2023-02-06T06:34:04.880Z,100439.77
2023-02-06T06:36:44.350Z,100444.61
2023-02-06T06:39:11.053Z,100445.67
2023-02-06T06:41:40.597Z,100446.39
2023-02-06T06:44:12.709Z,100444.02
2023-02-06T06:46:39.497Z,100447.46
2023-02-06T06:49:28.225Z,100454.35
2023-02-06T06:51:56.244Z,100452.84
2023-02-06T06:54:23.003Z,100453.42
2023-02-06T06:56:49.365Z,100450.02
2023-02-06T06:59:25.542Z,100450.88
2023-02-06T07:01:52.171Z,100453.28
2023-02-06T10:04:36.202Z,100487.91
2023-02-06T10:07:17.491Z,100481.50
2023-02-06T10:09:49.649Z,100478.77
2023-02-06T10:12:20.090Z,100480.58
2023-02-06T10:14:48.973Z,100476.09
2023-02-06T10:17:25.024Z,100470.09
2023-02-06T10:20:06.126Z,100470.08
2023-02-06T10:22:57.650Z,100473.83
2023-02-06T10:25:32.530Z,100472.56
2023-02-06T10:28:03.264Z,100471.88
2023-02-06T10:30:52.368Z,100472.84
2023-02-06T10:33:46.223Z,100470.92
2023-02-06T10:36:21.256Z,100466.83
2023-02-06T10:38:50.923Z,100464.29
2023-02-06T10:41:30.148Z,100462.73
2023-02-06T10:44:06.269Z,100461.69
2023-02-06T10:46:44.654Z,100458.43
2023-02-06T10:49:17.344Z,100452.66
2023-02-06T10:51:48.463Z,100453.35
2023-02-06T10:54:37.057Z,100452.98
2023-02-06T10:57:10.752Z,100446.00
2023-02-06T10:59:39.315Z,100444.52
2023-02-06T11:02:09.618Z,100441.48
2023-02-06T11:04:45.009Z,100438.92
2023-02-06T11:07:27.157Z,100441.41
2023-02-06T11:10:03.753Z,100441.43
2023-02-06T11:12:44.911Z,100443.95
2023-02-06T11:15:44.767Z,100442.60
2023-02-06T11:18:16.236Z,100434.73
2023-02-06T11:20:46.637Z,100425.23
2023-02-06T11:23:18.700Z,100421.79
2023-02-06T11:25:46.567Z,100423.24
2023-02-06T11:28:15.211Z,100413.43
2023-02-06T11:30:43.325Z,100413.56
2023-02-06T11:33:39.485Z,100411.70
2023-02-06T11:36:07.676Z,100411.98
2023-02-06T11:38:35.741Z,100411.95
2023-02-06T11:41:07.281Z,100410.52
2023-02-06T11:44:02.815Z,100410.98
2023-02-06T11:46:40.758Z,100411.64
2023-02-06T11:49:22.146Z,100410.15
2023-02-06T11:51:52.675Z,100409.73
2023-02-06T11:54:25.097Z,100414.64
2023-02-06T11:57:21.507Z,100415.68
2023-02-06T12:00:02.906Z,100421.92
2023-02-06T12:02:37.785Z,100420.13
2023-02-06T12:05:13.844Z,100422.98
2023-02-06T12:08:18.789Z,100419.09
2023-02-06T12:11:01.884Z,100418.45
2023-02-06T12:13:37.637Z,100420.34
2023-02-06T12:16:05.760Z,100421.23
2023-02-06T12:18:41.391Z,100419.62
2023-02-06T12:21:34.300Z,100420.42
2023-02-06T12:24:15.539Z,100420.54
2023-02-06T12:26:43.025Z,100421.03
2023-02-06T12:29:22.751Z,100419.16
2023-02-06T12:31:58.028Z,100419.20
2023-02-06T12:34:48.550Z,100413.98
2023-02-06T12:37:21.597Z,100415.41
2023-02-06T12:39:59.503Z,100419.64
2023-02-06T12:42:38.581Z,100417.14
2023-02-06T12:45:32.589Z,100423.02
2023-02-06T12:48:05.018Z,100425.48
2023-02-06T12:51:02.411Z,100426.02
2023-02-06T12:53:35.501Z,100419.44
2023-02-06T12:56:41.439Z,100418.60
2023-02-06T12:59:49.040Z,100418.52
2023-02-06T13:02:58.147Z,100415.63
2023-02-06T13:05:29.490Z,100412.73
2023-02-06T13:07:57.990Z,100417.42
2023-02-06T13:10:25.878Z,100420.79
2023-02-06T13:12:54.795Z,100421.09
2023-02-06T13:15:29.902Z,100419.80
2023-02-06T13:17:58.474Z,100420.65
2023-02-06T13:20:26.773Z,100420.94
2023-02-06T13:23:34.189Z,100418.89
2023-02-06T13:26:12.131Z,100418.50
2023-02-06T13:28:43.785Z,100421.10
2023-02-06T13:31:27.596Z,100427.33
2023-02-06T13:34:08.416Z,100429.66
2023-02-06T13:37:00.922Z,100433.08
2023-02-06T13:39:30.368Z,100430.63
2023-02-06T13:42:52.730Z,100430.61
2023-02-06T13:45:23.620Z,100435.41
2023-02-06T13:48:10.215Z,100437.77
2023-02-06T13:51:05.337Z,100441.77
2023-02-06T13:53:44.877Z,100439.42
2023-02-06T13:56:36.209Z,100437.92
2023-02-06T13:59:07.539Z,100440.38
2023-02-06T14:01:39.755Z,100440.96
2023-02-06T14:04:11.487Z,100445.72
2023-02-06T14:07:13.949Z,100444.06
2023-02-06T14:10:05.805Z,100440.66
2023-02-06T14:13:18.199Z,100440.25
2023-02-06T14:16:13.802Z,100440.05
2023-02-06T14:18:56.321Z,100441.48
2023-02-06T14:21:29.912Z,100445.09
2023-02-06T14:25:04.361Z,100447.58
2023-02-06T14:27:38.152Z,100444.80
2023-02-06T14:30:46.108Z,100445.42
2023-02-06T14:33:49.946Z,100455.06
2023-02-06T14:36:38.050Z,100458.66
2023-02-06T14:39:23.998Z,100457.19
2023-02-06T14:41:59.258Z,100457.48
2023-02-06T14:44:39.151Z,100460.54
2023-02-06T14:47:09.705Z,100460.80
2023-02-06T14:49:40.268Z,100460.73
2023-02-06T14:52:19.273Z,100461.84
2023-02-06T14:54:49.491Z,100464.55
2023-02-06T14:57:24.396Z,100468.33
2023-02-06T14:59:52.277Z,100465.92
2023-02-06T15:02:39.515Z,100469.34
2023-02-06T15:05:23.249Z,100464.34
2023-02-06T15:08:00.660Z,100467.64
2023-02-06T15:10:31.946Z,100468.35
2023-02-06T15:12:59.472Z,100471.60
2023-02-06T15:15:28.524Z,100468.45
2023-02-06T15:18:16.343Z,100465.20
2023-02-06T15:20:56.813Z,100465.27
2023-02-06T15:24:21.033Z,100471.97
2023-02-06T15:27:04.936Z,100477.62
2023-02-06T15:29:35.407Z,100481.53
2023-02-06T15:32:27.671Z,100479.14
2023-02-06T15:35:15.376Z,100480.35
2023-02-06T15:37:42.895Z,100484.51
2023-02-06T15:40:23.141Z,100476.18
2023-02-06T15:42:53.023Z,100480.66
2023-02-06T15:45:27.546Z,100484.38
2023-02-06T15:48:31.089Z,100488.15
2023-02-06T15:52:04.133Z,100492.60
2023-02-06T15:54:36.484Z,100498.06
2023-02-06T15:57:27.143Z,100500.05
2023-02-06T15:59:59.850Z,100501.59
2023-02-06T16:02:33.494Z,100499.84
2023-02-06T16:05:15.781Z,100501.34
2023-02-06T16:07:49.548Z,100505.86
2023-02-06T16:10:28.356Z,100506.96
2023-02-06T16:13:01.856Z,100507.61
2023-02-06T16:15:53.232Z,100513.10
2023-02-06T16:18:24.019Z,100518.39
2023-02-06T16:20:58.472Z,100517.90
2023-02-06T16:23:29.041Z,100520.03
2023-02-06T16:26:11.820Z,100520.48
2023-02-06T16:29:02.377Z,100526.33
2023-02-06T16:31:30.436Z,100530.84
2023-02-06T16:34:03.373Z,100534.77
2023-02-06T16:36:36.248Z,100538.99
2023-02-06T16:39:06.715Z,100542.76
2023-02-06T16:41:49.510Z,100541.67
2023-02-06T16:44:17.288Z,100541.13
2023-02-06T16:46:49.536Z,100536.05
2023-02-06T16:49:20.050Z,100540.70
2023-02-06T16:51:47.842Z,100542.20
2023-02-06T16:54:28.440Z,100541.17
2023-02-06T16:57:07.391Z,100532.46
2023-02-06T16:59:35.136Z,100524.20
2023-02-06T17:02:02.440Z,100522.08
2023-02-06T17:04:35.512Z,100524.37
2023-02-06T17:07:10.478Z,100524.06
2023-02-06T17:09:37.976Z,100525.23
2023-02-06T17:12:14.646Z,100524.87
2023-02-06T17:15:06.511Z,100518.73
2023-02-06T17:17:36.507Z,100513.70
2023-02-06T17:20:04.541Z,100515.86
2023-02-06T17:22:32.368Z,100517.80
2023-02-06T17:25:02.916Z,100509.41
2023-02-06T17:27:30.392Z,100510.77
2023-02-06T17:30:42.148Z,100516.36
2023-02-06T17:33:18.007Z,100516.59
2023-02-06T17:35:48.222Z,100512.19
2023-02-06T17:38:21.209Z,100508.92
2023-02-06T17:40:49.594Z,100512.17
2023-02-06T17:43:19.466Z,100512.27
2023-02-06T17:45:47.632Z,100516.58
2023-02-06T17:48:15.156Z,100515.40
2023-02-06T17:50:44.100Z,100516.15
2023-02-06T17:53:12.470Z,100514.24
2023-02-06T17:55:45.268Z,100512.89
2023-02-06T17:58:12.723Z,100512.83
2023-02-06T18:00:40.250Z,100516.91
2023-02-06T18:03:11.495Z,100518.55
2023-02-06T18:05:42.512Z,100522.80
2023-02-06T18:08:12.254Z,100523.63
2023-02-06T18:11:03.332Z,100527.02
2023-02-06T18:13:30.788Z,100526.34
2023-02-06T18:15:57.870Z,100524.19
2023-02-06T18:18:26.386Z,100522.45
2023-02-06T18:20:54.195Z,100522.95
2023-02-06T18:23:22.626Z,100521.69
2023-02-06T18:25:52.279Z,100526.48
2023-02-06T18:28:20.035Z,100528.49
2023-02-06T18:30:48.317Z,100529.48
2023-02-06T18:33:16.544Z,100528.81
2023-02-06T18:35:54.863Z,100531.46
2023-02-06T18:38:22.382Z,100533.14
2023-02-06T18:40:55.752Z,100532.58
2023-02-06T18:43:23.624Z,100528.99
2023-02-06T18:45:54.262Z,100532.77
2023-02-06T18:48:42.599Z,100536.67
2023-02-06T18:51:10.460Z,100536.06
2023-02-06T18:53:38.223Z,100532.61
2023-02-06T18:56:05.336Z,100532.31
2023-02-06T18:58:33.039Z,100534.62
2023-02-06T19:01:22.027Z,100537.77
2023-02-06T19:03:54.340Z,100548.50
2023-02-06T19:06:29.205Z,100552.78
2023-02-06T19:08:57.074Z,100551.66
2023-02-06T19:11:25.856Z,100553.21
2023-02-06T19:13:53.225Z,100550.95
2023-02-06T19:16:30.347Z,100551.35
2023-02-06T19:19:07.908Z,100544.42
2023-02-06T19:21:42.787Z,100545.58
2023-02-06T19:24:14.740Z,100542.08
2023-02-06T19:26:42.148Z,100535.19
2023-02-06T19:29:10.313Z,100534.06
2023-02-06T19:31:40.644Z,100526.05
2023-02-06T19:34:08.508Z,100520.33
2023-02-06T19:36:38.497Z,100516.58
2023-02-06T19:39:09.296Z,100516.07
2023-02-06T19:41:38.670Z,100513.18
2023-02-06T19:44:13.800Z,100518.29
2023-02-06T19:46:43.494Z,100513.06
2023-02-06T19:49:14.429Z,100516.95
2023-02-06T19:51:49.359Z,100520.95
2023-02-06T19:54:16.928Z,100518.79
2023-02-06T19:56:46.419Z,100513.13
2023-02-06T19:59:21.129Z,100518.02
2023-02-06T20:01:56.513Z,100523.85
2023-02-06T20:04:28.599Z,100531.41
2023-02-06T20:07:07.316Z,100536.55
2023-02-06T20:09:42.110Z,100545.45
2023-02-06T20:12:18.481Z,100548.92
2023-02-06T20:14:48.414Z,100550.23
2023-02-06T20:17:36.114Z,100549.67
2023-02-06T20:20:24.658Z,100556.38
2023-02-06T20:23:17.950Z,100549.83
2023-02-06T20:26:00.607Z,100548.39
2023-02-06T20:28:31.902Z,100540.06
2023-02-06T20:31:07.751Z,100538.98
2023-02-06T20:33:38.720Z,100538.56
2023-02-06T20:36:14.503Z,100540.63
2023-02-06T20:38:59.930Z,100543.50
2023-02-06T20:41:30.041Z,100538.23
2023-02-06T20:43:58.179Z,100541.64
2023-02-06T20:46:29.958Z,100547.15
2023-02-06T20:49:00.590Z,100542.84
2023-02-06T20:51:28.561Z,100550.56
2023-02-06T20:53:59.485Z,100551.73
2023-02-06T20:56:27.177Z,100559.84
2023-02-06T20:58:58.090Z,100562.42
2023-02-06T21:01:48.993Z,100567.25
2023-02-06T21:04:28.295Z,100566.40
2023-02-06T21:07:06.041Z,100571.23
2023-02-06T21:09:36.495Z,100570.14
2023-02-06T21:12:06.925Z,100571.14
2023-02-06T21:14:44.524Z,100569.66
2023-02-06T21:17:12.043Z,100570.23
2023-02-06T21:19:39.494Z,100566.13
2023-02-06T21:22:07.005Z,100568.88
2023-02-06T21:24:34.456Z,100572.36
2023-02-06T21:27:11.801Z,100571.13
2023-02-06T21:29:45.196Z,100576.43
2023-02-06T21:32:15.671Z,100587.44
2023-02-06T21:34:45.447Z,100589.41
2023-02-06T21:37:16.164Z,100590.65
2023-02-06T21:39:43.521Z,100586.05
2023-02-06T21:42:14.576Z,100579.41
2023-02-06T21:44:43.314Z,100575.48
2023-02-06T21:47:10.750Z,100569.02
2023-02-06T21:49:59.569Z,100576.11
2023-02-06T21:52:27.162Z,100576.65
2023-02-06T21:54:58.324Z,100574.21
2023-02-06T21:57:28.024Z,100577.54
2023-02-06T22:00:19.359Z,100578.08
2023-02-06T22:02:59.907Z,100575.64
2023-02-06T22:05:43.485Z,100575.30
2023-02-06T22:08:17.106Z,100571.96
2023-02-06T22:10:44.441Z,100571.70
2023-02-06T22:13:17.093Z,100572.98
2023-02-06T22:15:51.912Z,100569.40
2023-02-06T22:18:22.429Z,100568.91
2023-02-06T22:20:55.387Z,100567.27
2023-02-06T22:23:23.430Z,100564.40
2023-02-06T22:25:53.704Z,100568.64
2023-02-06T22:28:23.640Z,100571.91
2023-02-06T22:31:15.784Z,100563.83
2023-02-06T22:33:51.642Z,100561.89
2023-02-06T22:36:41.038Z,100564.92
2023-02-06T22:39:12.762Z,100567.70
2023-02-06T22:42:17.177Z,100560.75
2023-02-06T22:45:18.113Z,100561.20
2023-02-06T22:48:54.934Z,100556.73
2023-02-06T22:51:58.802Z,100556.02
2023-02-06T22:55:12.619Z,100553.81
2023-02-06T22:58:12.780Z,100555.30
2023-02-06T23:01:03.562Z,100560.89
2023-02-06T23:03:42.030Z,100561.38
2023-02-06T23:06:14.157Z,100559.95
2023-02-06T23:08:41.512Z,100557.80
2023-02-06T23:11:11.430Z,100554.75
2023-02-06T23:13:50.550Z,100545.44
2023-02-06T23:16:23.620Z,100541.37
2023-02-06T23:18:54.479Z,100543.16
2023-02-06T23:21:28.256Z,100540.94
2023-02-06T23:24:00.129Z,100542.52
2023-02-06T23:26:36.098Z,100539.05
2023-02-06T23:29:09.992Z,100540.64
2023-02-06T23:31:37.677Z,100540.73
2023-02-06T23:34:07.716Z,100541.70
2023-02-06T23:36:52.171Z,100536.41
2023-02-06T23:39:41.983Z,100537.96
2023-02-06T23:42:37.688Z,100550.73
2023-02-06T23:45:15.984Z,100543.87
2023-02-06T23:47:48.308Z,100535.36
2023-02-06T23:50:16.315Z,100534.00
2023-02-06T23:52:51.595Z,100540.33
2023-02-06T23:55:33.644Z,100535.81
2023-02-06T23:58:25.288Z,100532.23
